Terminal Aerodrome Forecast
Issued by NWS

Home | Current Version | Previous Version | Text Only | Print | Product List | Glossary On
Versions: 1 2 3 4 5 6 7 8 9 10 11 12 13 14 15
000
FTUS46 KSTO 031144 CCA
TAFSCK
TAF COR
KSCK 031144Z 0312/0412 28009KT P6SM SKC
     FM032200 27014G20KT P6SM BKN250
     FM040400 28010KT P6SM BKN250=

USA.gov is the U.S. government's official web portal to all federal, state and local government web resources and services.